Station Historical Data
Daily Summary for February 14, 2017 Units:  English    Metric   Both
« Previous Day
Next Day »
Daily Weekly Monthly Yearly Custom
  High: Low: Average:
Temperature: 60.3 °F 42.3 °F 50 °F
Dew Point: 45.7 °F 31.5 °F 38.4 °F
Humidity: 82 % 41 % 66 %
Wind Speed: 13.0 mph 0.0 mph 1.2 mph
Wind Gust: 16.0 mph - -
Wind:- - SSE
Pressure: 30.23 in 30.12 in -
Precipitation: 0.00 in    
Historical Graphs
 
 
Tabular Data for February 14, 2017
Time Temperature Dew Point Pressure Wind Wind Speed Wind Gust Humidity Rainfall Rate (Hourly) solar
00:02 45.4 °F 39.3 °F 30.18 in East 4.0 mph 4.0 mph 79 % 0.00 in 0.00 W/m2
00:07 45.4 °F 39.0 °F 30.18 in Calm   5.0 mph 78 % 0.00 in 0.00 W/m2
00:12 45.3 °F 37.9 °F 30.17 in Calm   2.0 mph 75 % 0.00 in 0.00 W/m2
00:17 45.4 °F 38.3 °F 30.18 in ESE 4.0 mph 5.0 mph 76 % 0.00 in 0.00 W/m2
00:22 45.3 °F 38.2 °F 30.18 in ESE 1.0 mph 7.0 mph 76 % 0.00 in 0.00 W/m2
00:27 45.3 °F 38.2 °F 30.18 in Calm   2.0 mph 76 % 0.00 in 0.00 W/m2
00:32 45.2 °F 37.8 °F 30.18 in Calm   1.0 mph 75 % 0.00 in 0.00 W/m2
00:37 45.1 °F 37.3 °F 30.18 in Calm   1.0 mph 74 % 0.00 in 0.00 W/m2
00:42 44.9 °F 37.5 °F 30.18 in East 2.0 mph 2.0 mph 75 % 0.00 in 0.00 W/m2
00:47 44.7 °F 37.3 °F 30.19 in Calm   2.0 mph 75 % 0.00 in 0.00 W/m2
00:52 44.6 °F 36.5 °F 30.19 in Calm   3.0 mph 73 % 0.00 in 0.00 W/m2
00:57 44.5 °F 37.4 °F 30.19 in Calm   1.0 mph 76 % 0.00 in 0.00 W/m2
01:02 44.4 °F 36.7 °F 30.20 in Calm     74 % 0.00 in 0.00 W/m2
01:07 44.3 °F 36.5 °F 30.20 in East 1.0 mph 1.0 mph 74 % 0.00 in 0.00 W/m2
01:12 44.1 °F 36.4 °F 30.20 in Calm   1.0 mph 74 % 0.00 in 0.00 W/m2
01:17 44.0 °F 36.6 °F 30.20 in Calm   1.0 mph 75 % 0.00 in 0.00 W/m2
01:22 43.9 °F 36.8 °F 30.20 in East 1.0 mph 2.0 mph 76 % 0.00 in 0.00 W/m2
01:27 43.6 °F 36.2 °F 30.20 in Calm     75 % 0.00 in 0.00 W/m2
01:32 43.3 °F 36.3 °F 30.20 in Calm     76 % 0.00 in 0.00 W/m2
01:37 43.2 °F 36.2 °F 30.20 in Calm     76 % 0.00 in 0.00 W/m2
01:42 43.1 °F 36.1 °F 30.20 in Calm     76 % 0.00 in 0.00 W/m2
01:47 43.1 °F 35.7 °F 30.21 in Calm     75 % 0.00 in 0.00 W/m2
01:52 43.0 °F 36.6 °F 30.21 in Calm     78 % 0.00 in 0.00 W/m2
01:57 43.0 °F 36.3 °F 30.21 in Calm   1.0 mph 77 % 0.00 in 0.00 W/m2
02:02 42.9 °F 36.2 °F 30.20 in Calm   1.0 mph 77 % 0.00 in 0.00 W/m2
02:07 42.9 °F 36.2 °F 30.20 in Calm     77 % 0.00 in 0.00 W/m2
02:12 42.9 °F 36.5 °F 30.20 in Calm   1.0 mph 78 % 0.00 in 0.00 W/m2
02:17 42.8 °F 36.1 °F 30.20 in Calm   1.0 mph 77 % 0.00 in 0.00 W/m2
02:22 42.8 °F 36.1 °F 30.20 in Calm   4.0 mph 77 % 0.00 in 0.00 W/m2
02:27 42.8 °F 36.1 °F 30.20 in Calm   1.0 mph 77 % 0.00 in 0.00 W/m2
02:32 42.7 °F 36.0 °F 30.20 in Calm   2.0 mph 77 % 0.00 in 0.00 W/m2
02:37 42.7 °F 36.0 °F 30.20 in ESE 1.0 mph 4.0 mph 77 % 0.00 in 0.00 W/m2
02:42 42.7 °F 36.0 °F 30.19 in ESE 1.0 mph 2.0 mph 77 % 0.00 in 0.00 W/m2
02:47 42.7 °F 36.3 °F 30.19 in Calm   4.0 mph 78 % 0.00 in 0.00 W/m2
02:52 42.7 °F 36.3 °F 30.19 in Calm   5.0 mph 78 % 0.00 in 0.00 W/m2
02:57 42.6 °F 36.2 °F 30.19 in Calm   7.0 mph 78 % 0.00 in 0.00 W/m2
03:02 42.6 °F 36.2 °F 30.19 in Calm   5.0 mph 78 % 0.00 in 0.00 W/m2
03:07 42.5 °F 36.1 °F 30.18 in East 1.0 mph 7.0 mph 78 % 0.00 in 0.00 W/m2
03:12 42.5 °F 35.8 °F 30.18 in ESE 4.0 mph 11.0 mph 77 % 0.00 in 0.00 W/m2
03:17 42.5 °F 35.5 °F 30.18 in ESE 7.0 mph 7.0 mph 76 % 0.00 in 0.00 W/m2
03:22 42.5 °F 35.2 °F 30.18 in East 4.0 mph 6.0 mph 75 % 0.00 in 0.00 W/m2
03:27 42.5 °F 34.8 °F 30.18 in Calm   9.0 mph 74 % 0.00 in 0.00 W/m2
03:33 42.7 °F 34.7 °F 30.17 in ESE 12.0 mph 13.0 mph 73 % 0.00 in 0.00 W/m2
03:38 42.8 °F 34.8 °F 30.17 in East 2.0 mph 6.0 mph 73 % 0.00 in 0.00 W/m2
03:43 42.9 °F 34.2 °F 30.17 in ESE 8.0 mph 12.0 mph 71 % 0.00 in 0.00 W/m2
03:48 43.0 °F 33.9 °F 30.17 in East 1.0 mph 12.0 mph 70 % 0.00 in 0.00 W/m2
03:53 43.1 °F 34.3 °F 30.17 in ENE 4.0 mph 12.0 mph 71 % 0.00 in 0.00 W/m2
03:58 43.1 °F 34.7 °F 30.17 in Calm   6.0 mph 72 % 0.00 in 0.00 W/m2
04:03 43.1 °F 34.0 °F 30.17 in East 5.0 mph 8.0 mph 70 % 0.00 in 0.00 W/m2
04:08 43.1 °F 33.6 °F 30.17 in East 2.0 mph 7.0 mph 69 % 0.00 in 0.00 W/m2
04:13 43.1 °F 33.6 °F 30.17 in SE 4.0 mph 8.0 mph 69 % 0.00 in 0.00 W/m2
04:18 43.1 °F 33.6 °F 30.16 in Calm   7.0 mph 69 % 0.00 in 0.00 W/m2
04:23 43.1 °F 33.3 °F 30.16 in ESE 2.0 mph 8.0 mph 68 % 0.00 in 0.00 W/m2
04:28 43.1 °F 32.5 °F 30.16 in Calm   9.0 mph 66 % 0.00 in 0.00 W/m2
04:33 43.2 °F 32.6 °F 30.16 in Calm   6.0 mph 66 % 0.00 in 0.00 W/m2
04:38 43.4 °F 32.4 °F 30.16 in ESE 2.0 mph 7.0 mph 65 % 0.00 in 0.00 W/m2
04:43 43.5 °F 32.9 °F 30.16 in East 4.0 mph 6.0 mph 66 % 0.00 in 0.00 W/m2
04:48 43.6 °F 32.6 °F 30.16 in East 5.0 mph 7.0 mph 65 % 0.00 in 0.00 W/m2
04:53 43.6 °F 33.0 °F 30.17 in East 1.0 mph 5.0 mph 66 % 0.00 in 0.00 W/m2
04:58 43.7 °F 32.3 °F 30.17 in Calm   5.0 mph 64 % 0.00 in 0.00 W/m2
05:03 43.8 °F 32.8 °F 30.17 in East 4.0 mph 4.0 mph 65 % 0.00 in 0.00 W/m2
05:08 43.8 °F 33.2 °F 30.17 in East 1.0 mph 8.0 mph 66 % 0.00 in 0.00 W/m2
05:13 43.9 °F 33.3 °F 30.17 in Calm   5.0 mph 66 % 0.00 in 0.00 W/m2
05:18 43.8 °F 32.8 °F 30.17 in Calm   4.0 mph 65 % 0.00 in 0.00 W/m2
05:23 43.7 °F 33.1 °F 30.18 in East 1.0 mph 2.0 mph 66 % 0.00 in 0.00 W/m2
05:28 43.7 °F 32.7 °F 30.18 in Calm   2.0 mph 65 % 0.00 in 0.00 W/m2
05:33 43.7 °F 32.3 °F 30.17 in East 1.0 mph 2.0 mph 64 % 0.00 in 0.00 W/m2
05:38 43.6 °F 32.2 °F 30.17 in Calm   2.0 mph 64 % 0.00 in 0.00 W/m2
05:43 43.6 °F 32.6 °F 30.18 in Calm   1.0 mph 65 % 0.00 in 0.00 W/m2
05:48 43.6 °F 32.6 °F 30.18 in Calm   2.0 mph 65 % 0.00 in 0.00 W/m2
05:53 43.6 °F 32.2 °F 30.18 in Calm     64 % 0.00 in 0.00 W/m2
05:58 43.6 °F 31.9 °F 30.18 in Calm   1.0 mph 63 % 0.00 in 0.00 W/m2
06:03 43.7 °F 32.7 °F 30.18 in Calm   2.0 mph 65 % 0.00 in 0.00 W/m2
06:08 43.7 °F 32.7 °F 30.19 in Calm   4.0 mph 65 % 0.00 in 0.00 W/m2
06:13 43.6 °F 33.0 °F 30.19 in Calm   2.0 mph 66 % 0.00 in 0.00 W/m2
06:18 43.5 °F 33.3 °F 30.19 in Calm   2.0 mph 67 % 0.00 in 0.00 W/m2
06:23 43.4 °F 32.8 °F 30.19 in Calm   4.0 mph 66 % 0.00 in 0.00 W/m2
06:28 43.2 °F 32.6 °F 30.19 in East 2.0 mph 5.0 mph 66 % 0.00 in 0.00 W/m2
06:33 43.0 °F 31.7 °F 30.19 in East 1.0 mph 4.0 mph 64 % 0.00 in 0.00 W/m2
06:38 42.8 °F 31.5 °F 30.19 in Calm     64 % 0.00 in 0.00 W/m2
06:43 42.7 °F 31.8 °F 30.20 in Calm     65 % 0.00 in 0.00 W/m2
06:48 42.7 °F 32.5 °F 30.20 in Calm     67 % 0.00 in 0.00 W/m2
06:54 42.5 °F 32.3 °F 30.20 in Calm     67 % 0.00 in 5.00 W/m2
06:58 42.5 °F 32.0 °F 30.20 in Calm     66 % 0.00 in 7.00 W/m2
07:04 42.4 °F 32.2 °F 30.20 in Calm   2.0 mph 67 % 0.00 in 11.00 W/m2
07:09 42.4 °F 32.2 °F 30.21 in East 2.0 mph 2.0 mph 67 % 0.00 in 14.00 W/m2
07:14 42.4 °F 32.6 °F 30.21 in Calm   2.0 mph 68 % 0.00 in 16.00 W/m2
07:19 42.3 °F 32.1 °F 30.21 in Calm   1.0 mph 67 % 0.00 in 21.00 W/m2
07:24 42.3 °F 32.1 °F 30.21 in Calm     67 % 0.00 in 32.00 W/m2
07:29 42.3 °F 31.8 °F 30.21 in East 4.0 mph 5.0 mph 66 % 0.00 in 46.00 W/m2
07:34 42.3 °F 31.8 °F 30.21 in East 1.0 mph 4.0 mph 66 % 0.00 in 60.00 W/m2
07:39 42.4 °F 32.2 °F 30.21 in East 1.0 mph 5.0 mph 67 % 0.00 in 76.00 W/m2
07:44 42.4 °F 32.6 °F 30.21 in East 1.0 mph 5.0 mph 68 % 0.00 in 90.00 W/m2
07:49 42.4 °F 32.6 °F 30.22 in East 2.0 mph 9.0 mph 68 % 0.00 in 107.00 W/m2
07:54 42.4 °F 32.6 °F 30.22 in East 2.0 mph 5.0 mph 68 % 0.00 in 127.00 W/m2
07:59 42.5 °F 32.7 °F 30.22 in East 1.0 mph 5.0 mph 68 % 0.00 in 146.00 W/m2
08:04 42.6 °F 32.8 °F 30.22 in Calm   7.0 mph 68 % 0.00 in 167.00 W/m2
08:09 42.7 °F 32.5 °F 30.23 in Calm   6.0 mph 67 % 0.00 in 186.00 W/m2
08:14 42.9 °F 32.7 °F 30.22 in ESE 2.0 mph 9.0 mph 67 % 0.00 in 211.00 W/m2
08:19 43.1 °F 32.2 °F 30.23 in ESE 4.0 mph 8.0 mph 65 % 0.00 in 232.00 W/m2
08:24 43.3 °F 32.0 °F 30.23 in Calm   7.0 mph 64 % 0.00 in 248.00 W/m2
08:29 43.7 °F 32.3 °F 30.23 in East 5.0 mph 6.0 mph 64 % 0.00 in 267.00 W/m2
08:34 44.1 °F 33.5 °F 30.23 in Calm   7.0 mph 66 % 0.00 in 292.00 W/m2
08:39 44.5 °F 33.9 °F 30.23 in Calm   5.0 mph 66 % 0.00 in 313.00 W/m2
08:44 44.8 °F 33.4 °F 30.23 in East 5.0 mph 7.0 mph 64 % 0.00 in 330.00 W/m2
08:49 45.1 °F 34.4 °F 30.23 in Calm   4.0 mph 66 % 0.00 in 348.00 W/m2
08:54 45.5 °F 34.4 °F 30.23 in East 1.0 mph 5.0 mph 65 % 0.00 in 362.00 W/m2
08:59 45.9 °F 35.6 °F 30.23 in East 1.0 mph 5.0 mph 67 % 0.00 in 380.00 W/m2
09:04 46.1 °F 34.2 °F 30.22 in Calm     63 % 0.00 in 394.00 W/m2
09:09 46.5 °F 35.0 °F 30.22 in Calm     64 % 0.00 in 408.00 W/m2
09:14 46.9 °F 35.4 °F 30.22 in Calm   4.0 mph 64 % 0.00 in 424.00 W/m2
09:19 47.2 °F 35.7 °F 30.22 in Calm   2.0 mph 64 % 0.00 in 439.00 W/m2
09:24 47.6 °F 37.2 °F 30.22 in East 1.0 mph 6.0 mph 67 % 0.00 in 455.00 W/m2
09:29 47.9 °F 34.3 °F 30.22 in East 1.0 mph 6.0 mph 59 % 0.00 in 469.00 W/m2
09:34 48.3 °F 34.2 °F 30.22 in Calm   2.0 mph 58 % 0.00 in 480.00 W/m2
09:39 48.8 °F 33.4 °F 30.22 in East 2.0 mph 4.0 mph 55 % 0.00 in 492.00 W/m2
09:44 49.4 °F 32.0 °F 30.21 in Calm   2.0 mph 51 % 0.00 in 503.00 W/m2
09:49 49.9 °F 32.0 °F 30.21 in Calm   2.0 mph 50 % 0.00 in 515.00 W/m2
09:54 50.5 °F 32.6 °F 30.21 in Calm     50 % 0.00 in 527.00 W/m2
09:59 51.1 °F 34.6 °F 30.21 in Calm     53 % 0.00 in 538.00 W/m2
10:04 51.5 °F 36.8 °F 30.21 in Calm     57 % 0.00 in 552.00 W/m2
10:09 51.9 °F 35.8 °F 30.21 in Calm     54 % 0.00 in 564.00 W/m2
10:14 52.2 °F 35.1 °F 30.21 in Calm     52 % 0.00 in 575.00 W/m2
10:19 52.4 °F 35.8 °F 30.21 in Calm   1.0 mph 53 % 0.00 in 584.00 W/m2
10:24 53.0 °F 35.9 °F 30.21 in Calm   2.0 mph 52 % 0.00 in 592.00 W/m2
10:29 53.8 °F 37.6 °F 30.21 in Calm   1.0 mph 54 % 0.00 in 601.00 W/m2
10:34 54.4 °F 39.5 °F 30.20 in East 3.0 mph 5.0 mph 57 % 0.00 in 610.00 W/m2
10:39 55.1 °F 37.8 °F 30.21 in North 2.0 mph 4.0 mph 52 % 0.00 in 617.00 W/m2
10:45 55.6 °F 37.3 °F 30.21 in NNW 2.0 mph 3.0 mph 50 % 0.00 in 626.00 W/m2
10:50 56.1 °F 37.2 °F 30.21 in NW 1.0 mph 3.0 mph 49 % 0.00 in 633.00 W/m2
10:55 56.4 °F 36.4 °F 30.21 in WNW 3.0 mph 5.0 mph 47 % 0.00 in 640.00 W/m2
11:00 56.8 °F 38.4 °F 30.20 in WNW 3.0 mph 4.0 mph 50 % 0.00 in 645.00 W/m2
11:05 57.1 °F 39.2 °F 30.20 in WNW 4.0 mph 4.0 mph 51 % 0.00 in 652.00 W/m2
11:10 57.2 °F 36.1 °F 30.20 in WNW 3.0 mph 4.0 mph 45 % 0.00 in 656.00 W/m2
11:15 57.3 °F 33.8 °F 30.20 in NW 1.0 mph 4.0 mph 41 % 0.00 in 663.00 W/m2
11:20 57.4 °F 33.9 °F 30.20 in NW 1.0 mph 4.0 mph 41 % 0.00 in 666.00 W/m2
11:25 57.6 °F 34.1 °F 30.20 in NW 1.0 mph 4.0 mph 41 % 0.00 in 671.00 W/m2
11:30 57.6 °F 35.9 °F 30.19 in NW 1.0 mph 4.0 mph 44 % 0.00 in 677.00 W/m2
11:35 57.7 °F 34.8 °F 30.19 in NW 2.0 mph 3.0 mph 42 % 0.00 in 680.00 W/m2
11:40 57.8 °F 34.9 °F 30.19 in NW 2.0 mph 3.0 mph 42 % 0.00 in 684.00 W/m2
11:45 57.9 °F 36.1 °F 30.19 in NW 3.0 mph 5.0 mph 44 % 0.00 in 686.00 W/m2
11:50 58.0 °F 36.2 °F 30.19 in NW 3.0 mph 6.0 mph 44 % 0.00 in 687.00 W/m2
11:55 58.1 °F 38.0 °F 30.19 in NW 1.0 mph 4.0 mph 47 % 0.00 in 687.00 W/m2
12:00 58.1 °F 38.5 °F 30.19 in WNW 2.0 mph 5.0 mph 48 % 0.00 in 689.00 W/m2
12:05 58.3 °F 39.2 °F 30.19 in NW 1.0 mph 5.0 mph 49 % 0.00 in 689.00 W/m2
12:10 58.3 °F 39.2 °F 30.18 in WNW 2.0 mph 3.0 mph 49 % 0.00 in 689.00 W/m2
12:15 58.5 °F 39.9 °F 30.18 in WNW 1.0 mph 4.0 mph 50 % 0.00 in 691.00 W/m2
12:20 58.5 °F 39.4 °F 30.18 in NW 2.0 mph 5.0 mph 49 % 0.00 in 691.00 W/m2
12:25 58.6 °F 39.5 °F 30.18 in WNW 1.0 mph 3.0 mph 49 % 0.00 in 693.00 W/m2
12:30 58.7 °F 39.6 °F 30.17 in NW 2.0 mph 4.0 mph 49 % 0.00 in 691.00 W/m2
12:35 58.8 °F 39.7 °F 30.17 in NW 2.0 mph 3.0 mph 49 % 0.00 in 687.00 W/m2
12:40 58.9 °F 39.8 °F 30.17 in Calm   3.0 mph 49 % 0.00 in 684.00 W/m2
12:45 59.0 °F 40.9 °F 30.17 in NW 1.0 mph 3.0 mph 51 % 0.00 in 684.00 W/m2
12:50 59.1 °F 40.5 °F 30.16 in NW 1.0 mph 4.0 mph 50 % 0.00 in 680.00 W/m2
12:55 59.3 °F 40.7 °F 30.16 in Calm   4.0 mph 50 % 0.00 in 680.00 W/m2
13:00 59.4 °F 41.3 °F 30.16 in Calm   5.0 mph 51 % 0.00 in 687.00 W/m2
13:05 59.5 °F 40.9 °F 30.16 in Calm   7.0 mph 50 % 0.00 in 668.00 W/m2
13:10 59.6 °F 40.4 °F 30.16 in WNW 1.0 mph 4.0 mph 49 % 0.00 in 679.00 W/m2
13:15 59.7 °F 41.0 °F 30.16 in Calm   5.0 mph 50 % 0.00 in 680.00 W/m2
13:20 59.7 °F 40.5 °F 30.15 in Calm   3.0 mph 49 % 0.00 in 643.00 W/m2
13:25 59.8 °F 40.6 °F 30.15 in WNW 2.0 mph 2.0 mph 49 % 0.00 in 622.00 W/m2
13:30 59.9 °F 41.2 °F 30.15 in WNW 1.0 mph 3.0 mph 50 % 0.00 in 633.00 W/m2
13:36 59.9 °F 40.2 °F 30.15 in Calm   6.0 mph 48 % 0.00 in 652.00 W/m2
13:41 59.9 °F 41.8 °F 30.15 in Calm   3.0 mph 51 % 0.00 in 608.00 W/m2
13:45 60.0 °F 40.3 °F 30.15 in NW 1.0 mph 1.0 mph 48 % 0.00 in 613.00 W/m2
13:51 60.0 °F 41.3 °F 30.15 in Calm   2.0 mph 50 % 0.00 in 573.00 W/m2
13:56 60.0 °F 40.3 °F 30.15 in NW 1.0 mph 2.0 mph 48 % 0.00 in 494.00 W/m2
14:01 60.1 °F 39.8 °F 30.15 in Calm   7.0 mph 47 % 0.00 in 466.00 W/m2
14:06 60.1 °F 40.4 °F 30.15 in NNW 1.0 mph 7.0 mph 48 % 0.00 in 468.00 W/m2
14:11 60.2 °F 40.5 °F 30.15 in NNW 1.0 mph 2.0 mph 48 % 0.00 in 529.00 W/m2
14:16 60.3 °F 40.5 °F 30.15 in Calm   5.0 mph 48 % 0.00 in 448.00 W/m2
14:21 60.2 °F 40.5 °F 30.14 in Calm   1.0 mph 48 % 0.00 in 584.00 W/m2
14:26 60.2 °F 41.0 °F 30.14 in Calm   1.0 mph 49 % 0.00 in 547.00 W/m2
14:31 60.2 °F 41.0 °F 30.14 in Calm     49 % 0.00 in 534.00 W/m2
14:36 60.2 °F 39.9 °F 30.14 in Calm     47 % 0.00 in 538.00 W/m2
14:41 60.3 °F 40.5 °F 30.14 in Calm     48 % 0.00 in 527.00 W/m2
14:46 60.3 °F 39.5 °F 30.14 in Calm     46 % 0.00 in 482.00 W/m2
14:51 60.3 °F 41.1 °F 30.13 in Calm   5.0 mph 49 % 0.00 in 503.00 W/m2
14:56 60.3 °F 39.5 °F 30.13 in Calm   1.0 mph 46 % 0.00 in 439.00 W/m2
15:01 60.3 °F 38.9 °F 30.13 in Calm     45 % 0.00 in 399.00 W/m2
15:06 60.3 °F 40.5 °F 30.12 in Calm     48 % 0.00 in 468.00 W/m2
15:11 60.3 °F 40.0 °F 30.12 in Calm   1.0 mph 47 % 0.00 in 441.00 W/m2
15:16 60.3 °F 41.6 °F 30.12 in SSW 1.0 mph 2.0 mph 50 % 0.00 in 378.00 W/m2
15:21 60.2 °F 39.4 °F 30.12 in Calm   2.0 mph 46 % 0.00 in 399.00 W/m2
15:26 60.2 °F 38.2 °F 30.12 in Calm   1.0 mph 44 % 0.00 in 403.00 W/m2
15:31 60.1 °F 39.3 °F 30.12 in South 1.0 mph 1.0 mph 46 % 0.00 in 380.00 W/m2
15:36 60.1 °F 40.4 °F 30.13 in Calm     48 % 0.00 in 359.00 W/m2
15:41 60.1 °F 41.9 °F 30.13 in Calm     51 % 0.00 in 346.00 W/m2
15:46 60.0 °F 39.2 °F 30.13 in SW 5.0 mph 6.0 mph 46 % 0.00 in 338.00 W/m2
15:51 60.0 °F 40.3 °F 30.14 in Calm     48 % 0.00 in 320.00 W/m2
15:56 60.0 °F 40.3 °F 30.14 in Calm     48 % 0.00 in 301.00 W/m2
16:01 60.0 °F 41.8 °F 30.14 in Calm   3.0 mph 51 % 0.00 in 283.00 W/m2
16:06 60.0 °F 42.3 °F 30.14 in WSW 6.0 mph 6.0 mph 52 % 0.00 in 264.00 W/m2
16:12 59.9 °F 43.2 °F 30.14 in Calm   1.0 mph 54 % 0.00 in 248.00 W/m2
16:17 59.8 °F 44.1 °F 30.14 in WSW 1.0 mph 6.0 mph 56 % 0.00 in 229.00 W/m2
16:22 59.5 °F 43.8 °F 30.14 in Calm   11.0 mph 56 % 0.00 in 209.00 W/m2
16:27 59.3 °F 44.5 °F 30.15 in Calm     58 % 0.00 in 188.00 W/m2
16:32 59.1 °F 44.8 °F 30.15 in WSW 1.0 mph 2.0 mph 59 % 0.00 in 165.00 W/m2
16:37 58.9 °F 44.6 °F 30.15 in WSW 1.0 mph 1.0 mph 59 % 0.00 in 149.00 W/m2
16:42 58.7 °F 45.3 °F 30.15 in Calm     61 % 0.00 in 128.00 W/m2
16:47 58.4 °F 44.6 °F 30.15 in West 1.0 mph 2.0 mph 60 % 0.00 in 109.00 W/m2
16:52 58.1 °F 44.7 °F 30.15 in Calm     61 % 0.00 in 86.00 W/m2
16:57 57.9 °F 45.0 °F 30.16 in Calm     62 % 0.00 in 69.00 W/m2
17:02 57.7 °F 45.6 °F 30.16 in Calm     64 % 0.00 in 42.00 W/m2
17:07 57.3 °F 45.7 °F 30.16 in Calm     65 % 0.00 in 30.00 W/m2
17:12 56.8 °F 45.2 °F 30.16 in Calm     65 % 0.00 in 25.00 W/m2
17:17 56.5 °F 45.3 °F 30.16 in Calm     66 % 0.00 in 18.00 W/m2
17:27 55.8 °F 45.0 °F 30.16 in Calm     67 % 0.00 in 12.00 W/m2
17:32 55.6 °F 45.2 °F 30.16 in Calm     68 % 0.00 in 9.00 W/m2
17:37 55.3 °F 44.9 °F 30.16 in Calm     68 % 0.00 in 5.00 W/m2
17:42 54.8 °F 45.2 °F 30.16 in Calm     70 % 0.00 in 0.00 W/m2
17:47 54.2 °F 45.0 °F 30.17 in Calm     71 % 0.00 in 0.00 W/m2
17:52 53.7 °F 44.9 °F 30.17 in Calm     72 % 0.00 in 0.00 W/m2
17:57 53.4 °F 45.0 °F 30.17 in Calm     73 % 0.00 in 0.00 W/m2
18:02 53.2 °F 45.1 °F 30.17 in Calm     74 % 0.00 in 0.00 W/m2
18:07 52.9 °F 44.8 °F 30.18 in Calm     74 % 0.00 in 0.00 W/m2
18:12 52.5 °F 44.8 °F 30.18 in Calm     75 % 0.00 in 0.00 W/m2
18:17 52.1 °F 44.4 °F 30.18 in Calm     75 % 0.00 in 0.00 W/m2
18:22 51.7 °F 44.4 °F 30.18 in Calm     76 % 0.00 in 0.00 W/m2
18:27 51.4 °F 44.4 °F 30.19 in Calm     77 % 0.00 in 0.00 W/m2
18:33 51.0 °F 44.4 °F 30.19 in Calm     78 % 0.00 in 0.00 W/m2
18:38 50.6 °F 44.3 °F 30.19 in Calm     79 % 0.00 in 0.00 W/m2
18:42 50.3 °F 44.0 °F 30.19 in Calm     79 % 0.00 in 0.00 W/m2
18:48 50.0 °F 43.8 °F 30.19 in Calm     79 % 0.00 in 0.00 W/m2
18:53 49.8 °F 43.9 °F 30.18 in Calm     80 % 0.00 in 0.00 W/m2
18:58 49.7 °F 43.8 °F 30.18 in Calm     80 % 0.00 in 0.00 W/m2
19:03 49.5 °F 43.9 °F 30.18 in Calm     81 % 0.00 in 0.00 W/m2
19:08 49.4 °F 43.8 °F 30.18 in Calm     81 % 0.00 in 0.00 W/m2
19:13 49.2 °F 43.6 °F 30.18 in Calm     81 % 0.00 in 0.00 W/m2
19:18 49.1 °F 43.5 °F 30.18 in SE 1.0 mph 2.0 mph 81 % 0.00 in 0.00 W/m2
19:23 49.0 °F 43.4 °F 30.18 in ESE 1.0 mph 2.0 mph 81 % 0.00 in 0.00 W/m2
19:28 48.8 °F 43.2 °F 30.18 in ESE 2.0 mph 5.0 mph 81 % 0.00 in 0.00 W/m2
19:33 48.8 °F 43.2 °F 30.18 in Calm   2.0 mph 81 % 0.00 in 0.00 W/m2
19:38 48.7 °F 43.5 °F 30.18 in ESE 1.0 mph 5.0 mph 82 % 0.00 in 0.00 W/m2
19:43 48.7 °F 43.5 °F 30.18 in Calm   6.0 mph 82 % 0.00 in 0.00 W/m2
19:48 48.6 °F 43.4 °F 30.18 in ESE 4.0 mph 6.0 mph 82 % 0.00 in 0.00 W/m2
19:53 48.6 °F 43.4 °F 30.18 in East 2.0 mph 8.0 mph 82 % 0.00 in 0.00 W/m2
19:58 48.6 °F 43.4 °F 30.17 in East 1.0 mph 9.0 mph 82 % 0.00 in 0.00 W/m2
20:03 48.6 °F 43.4 °F 30.17 in East 8.0 mph 8.0 mph 82 % 0.00 in 0.00 W/m2
20:08 48.6 °F 43.4 °F 30.17 in East 2.0 mph 9.0 mph 82 % 0.00 in 0.00 W/m2
20:13 48.7 °F 43.5 °F 30.18 in Calm   7.0 mph 82 % 0.00 in 0.00 W/m2
20:18 48.7 °F 43.5 °F 30.18 in East 2.0 mph 7.0 mph 82 % 0.00 in 0.00 W/m2
20:23 48.9 °F 43.3 °F 30.18 in Calm   7.0 mph 81 % 0.00 in 0.00 W/m2
20:28 49.0 °F 43.4 °F 30.19 in ESE 5.0 mph 6.0 mph 81 % 0.00 in 0.00 W/m2
20:33 49.1 °F 43.5 °F 30.19 in Calm   6.0 mph 81 % 0.00 in 0.00 W/m2
20:38 49.2 °F 43.6 °F 30.19 in East 1.0 mph 5.0 mph 81 % 0.00 in 0.00 W/m2
20:43 49.2 °F 43.3 °F 30.19 in East 2.0 mph 5.0 mph 80 % 0.00 in 0.00 W/m2
20:48 49.3 °F 43.4 °F 30.19 in East 4.0 mph 9.0 mph 80 % 0.00 in 0.00 W/m2
20:53 49.2 °F 43.6 °F 30.19 in ESE 2.0 mph 6.0 mph 81 % 0.00 in 0.00 W/m2
20:58 49.1 °F 43.2 °F 30.19 in East 4.0 mph 5.0 mph 80 % 0.00 in 0.00 W/m2
21:03 49.1 °F 43.2 °F 30.19 in ESE 7.0 mph 8.0 mph 80 % 0.00 in 0.00 W/m2
21:08 49.1 °F 43.2 °F 30.19 in East 2.0 mph 8.0 mph 80 % 0.00 in 0.00 W/m2
21:13 49.1 °F 43.2 °F 30.19 in Calm   11.0 mph 80 % 0.00 in 0.00 W/m2
21:18 49.1 °F 42.9 °F 30.19 in East 8.0 mph 8.0 mph 79 % 0.00 in 0.00 W/m2
21:23 49.1 °F 42.9 °F 30.19 in ESE 2.0 mph 9.0 mph 79 % 0.00 in 0.00 W/m2
21:28 49.1 °F 42.9 °F 30.19 in ESE 2.0 mph 9.0 mph 79 % 0.00 in 0.00 W/m2
21:33 49.1 °F 42.9 °F 30.19 in ESE 1.0 mph 6.0 mph 79 % 0.00 in 0.00 W/m2
21:38 49.1 °F 42.5 °F 30.19 in ESE 5.0 mph 16.0 mph 78 % 0.00 in 0.00 W/m2
21:43 49.1 °F 42.9 °F 30.19 in Calm   8.0 mph 79 % 0.00 in 0.00 W/m2
21:49 49.1 °F 42.5 °F 30.20 in ESE 5.0 mph 8.0 mph 78 % 0.00 in 0.00 W/m2
21:54 49.0 °F 42.1 °F 30.20 in ESE 5.0 mph 6.0 mph 77 % 0.00 in 0.00 W/m2
21:59 49.1 °F 42.2 °F 30.20 in Calm   7.0 mph 77 % 0.00 in 0.00 W/m2
22:04 49.1 °F 42.2 °F 30.20 in Calm   12.0 mph 77 % 0.00 in 0.00 W/m2
22:09 49.1 °F 42.2 °F 30.21 in ESE 4.0 mph 7.0 mph 77 % 0.00 in 0.00 W/m2
22:14 49.0 °F 42.1 °F 30.20 in Calm   14.0 mph 77 % 0.00 in 0.00 W/m2
22:19 48.9 °F 42.0 °F 30.20 in Calm   9.0 mph 77 % 0.00 in 0.00 W/m2
22:24 48.8 °F 41.6 °F 30.20 in Calm   7.0 mph 76 % 0.00 in 0.00 W/m2
22:29 48.8 °F 41.6 °F 30.20 in Calm   6.0 mph 76 % 0.00 in 0.00 W/m2
22:34 48.7 °F 41.5 °F 30.21 in ESE 4.0 mph 7.0 mph 76 % 0.00 in 0.00 W/m2
22:39 48.6 °F 41.4 °F 30.20 in ESE 1.0 mph 11.0 mph 76 % 0.00 in 0.00 W/m2
22:44 48.6 °F 41.4 °F 30.20 in ESE 1.0 mph 9.0 mph 76 % 0.00 in 0.00 W/m2
22:49 48.6 °F 41.0 °F 30.20 in East 1.0 mph 11.0 mph 75 % 0.00 in 0.00 W/m2
22:54 48.6 °F 41.0 °F 30.20 in East 5.0 mph 8.0 mph 75 % 0.00 in 0.00 W/m2
22:59 48.5 °F 40.6 °F 30.20 in East 7.0 mph 8.0 mph 74 % 0.00 in 0.00 W/m2
23:04 48.6 °F 40.7 °F 30.20 in Calm   13.0 mph 74 % 0.00 in 0.00 W/m2
23:09 48.6 °F 40.7 °F 30.20 in ESE 1.0 mph 13.0 mph 74 % 0.00 in 0.00 W/m2
23:14 48.6 °F 40.7 °F 30.19 in ESE 8.0 mph 12.0 mph 74 % 0.00 in 0.00 W/m2
23:19 48.6 °F 40.3 °F 30.20 in Calm   15.0 mph 73 % 0.00 in 0.00 W/m2
23:24 48.7 °F 40.1 °F 30.20 in East 1.0 mph 4.0 mph 72 % 0.00 in 0.00 W/m2
23:29 48.7 °F 40.1 °F 30.20 in East 4.0 mph 14.0 mph 72 % 0.00 in 0.00 W/m2
23:34 48.7 °F 40.5 °F 30.20 in Calm   15.0 mph 73 % 0.00 in 0.00 W/m2
23:39 48.7 °F 40.1 °F 30.20 in East 1.0 mph 8.0 mph 72 % 0.00 in 0.00 W/m2
23:44 48.6 °F 40.0 °F 30.19 in East 1.0 mph 12.0 mph 72 % 0.00 in 0.00 W/m2
23:49 48.7 °F 40.1 °F 30.19 in East 13.0 mph 15.0 mph 72 % 0.00 in 0.00 W/m2
23:54 48.6 °F 39.6 °F 30.19 in SE 5.0 mph 9.0 mph 71 % 0.00 in 0.00 W/m2
23:59 48.6 °F 39.3 °F 30.19 in ESE 1.0 mph 12.0 mph 70 % 0.00 in 0.00 W/m2
Juneau County Weather
Compliments of Weather Underground - 4.5 mb
 WU-history PHP script courtesy of   Juneau County Weather.
powered by Cumulus v1.9.3 (1059)
Ambient Weather VWS v14.00
Top Contact Website Map Copyright © 2007 - 2018 Foresthillweather.com Never base important decisions on this or any weather information obtained from the Internet